Time;durP1;ratioP1;P1;durP2;ratioP2;P2;SDS_P1;SDS_P2;PMS_P1;PMS_P2;Temp;Humidity;BMP_temperature;BMP_pressure;BME280_temperature;BME280_humidity;BME280_pressure;Samples;Min_cycle;Max_cycle;Signal;HPM_P1;HPM_P2
2022/05/27 00:01:19;;;;;;;9.52;5.22;;;26.10;96.70;;;;;;5051499;28;20048;-76
2022/05/27 00:03:47;;;;;;;10.10;5.10;;;26.10;96.70;;;;;;5061815;28;20044;-76
2022/05/27 00:06:15;;;;;;;9.00;5.20;;;26.10;96.70;;;;;;5038636;28;20041;-77
2022/05/27 00:08:43;;;;;;;10.48;5.40;;;26.10;96.70;;;;;;5055013;28;20072;-76
2022/05/27 00:11:12;;;;;;;9.27;5.50;;;26.10;96.70;;;;;;5061946;28;20449;-77
2022/05/27 00:13:41;;;;;;;8.23;5.32;;;26.10;96.70;;;;;;5058472;28;20045;-76
2022/05/27 00:16:12;;;;;;;9.05;5.40;;;26.10;96.70;;;;;;5044386;28;20410;-76
2022/05/27 00:18:41;;;;;;;6.70;5.10;;;26.00;96.70;;;;;;5052914;28;20041;-76
2022/05/27 00:21:09;;;;;;;7.35;5.28;;;25.90;96.70;;;;;;5057075;28;20044;-76
2022/05/27 00:23:38;;;;;;;7.43;5.85;;;26.00;96.70;;;;;;5053311;28;20097;-78
2022/05/27 00:26:07;;;;;;;8.90;5.00;;;26.10;96.70;;;;;;5055785;28;20478;-79
2022/05/27 00:28:35;;;;;;;8.38;6.18;;;26.10;96.70;;;;;;5057311;28;20052;-78
2022/05/27 00:31:05;;;;;;;7.72;5.35;;;26.00;96.70;;;;;;5055506;28;20650;-78
2022/05/27 00:33:38;;;;;;;7.75;5.75;;;25.90;96.70;;;;;;5052134;28;20044;-78
2022/05/27 00:36:08;;;;;;;12.23;5.20;;;25.70;96.70;;;;;;5053304;28;20045;-78
2022/05/27 00:38:37;;;;;;;8.65;5.47;;;25.60;96.70;;;;;;5050201;28;20120;-79
2022/05/27 00:41:05;;;;;;;8.52;5.35;;;25.70;96.70;;;;;;5035271;28;20135;-78
2022/05/27 00:43:33;;;;;;;9.07;5.15;;;25.80;96.70;;;;;;5053322;28;20064;-78
2022/05/27 00:46:04;;;;;;;7.72;5.20;;;25.80;96.70;;;;;;5059290;28;20139;-78
2022/05/27 00:48:36;;;;;;;12.07;5.85;;;25.80;96.70;;;;;;5052311;28;20061;-78
2022/05/27 00:51:11;;;;;;;10.23;6.03;;;25.80;96.70;;;;;;5051526;28;20127;-78
2022/05/27 00:53:45;;;;;;;11.90;5.50;;;25.80;96.70;;;;;;5056304;28;20052;-78
2022/05/27 00:56:15;;;;;;;10.57;5.85;;;25.70;96.70;;;;;;5050437;28;20080;-81
2022/05/27 00:58:48;;;;;;;10.07;5.32;;;25.80;96.70;;;;;;5053934;28;20063;-78
2022/05/27 01:01:17;;;;;;;9.48;5.95;;;25.60;96.70;;;;;;5050468;28;20116;-78
2022/05/27 01:03:47;;;;;;;8.25;5.90;;;25.60;96.70;;;;;;5050991;28;20048;-78
2022/05/27 01:06:16;;;;;;;8.65;5.88;;;25.60;96.70;;;;;;5054926;28;20044;-78
2022/05/27 01:08:45;;;;;;;13.25;5.95;;;25.60;96.70;;;;;;5052366;28;20132;-78
2022/05/27 01:11:22;;;;;;;7.82;6.05;;;25.60;96.70;;;;;;5052280;28;20032;-79
2022/05/27 01:14:02;;;;;;;11.63;6.30;;;25.60;96.70;;;;;;5053457;28;20057;-78
2022/05/27 01:16:41;;;;;;;8.90;5.57;;;25.50;96.70;;;;;;5038424;28;20059;-78
2022/05/27 01:22:45;;;;;;;10.73;5.68;;;25.50;96.70;;;;;;5055352;28;20049;-78
2022/05/27 01:25:53;;;;;;;12.50;5.68;;;25.60;96.70;;;;;;5057685;28;20084;-78
2022/05/27 01:28:38;;;;;;;9.48;5.38;;;25.50;96.70;;;;;;4982567;28;20070;-79
2022/05/27 01:31:23;;;;;;;10.20;5.95;;;25.30;96.70;;;;;;5056757;28;20177;-77
2022/05/27 01:34:03;;;;;;;6.68;5.10;;;25.40;96.70;;;;;;5052769;28;20617;-76
2022/05/27 01:36:38;;;;;;;7.15;5.25;;;25.40;96.70;;;;;;5052057;28;20804;-77
2022/05/27 01:39:11;;;;;;;10.77;5.40;;;25.30;96.70;;;;;;5055680;28;20146;-77
2022/05/27 01:41:44;;;;;;;10.02;5.55;;;25.20;96.70;;;;;;5047933;28;20043;-76
2022/05/27 01:44:20;;;;;;;7.15;5.05;;;25.10;96.70;;;;;;5051323;28;20041;-76
2022/05/27 01:46:49;;;;;;;7.20;5.47;;;25.10;96.70;;;;;;5047986;28;20052;-77
2022/05/27 01:49:29;;;;;;;10.25;5.15;;;25.10;96.70;;;;;;5037403;28;20062;-76
2022/05/27 01:52:06;;;;;;;10.68;6.22;;;25.10;96.70;;;;;;5051240;28;20099;-76
2022/05/27 01:54:45;;;;;;;8.80;5.63;;;25.00;96.70;;;;;;5038071;28;20080;-76
2022/05/27 01:57:17;;;;;;;7.10;5.35;;;25.00;96.70;;;;;;5048800;28;20060;-77
2022/05/27 01:59:57;;;;;;;6.95;5.05;;;25.10;96.70;;;;;;5056746;28;20379;-76
2022/05/27 02:02:30;;;;;;;8.50;6.18;;;25.10;96.70;;;;;;5050802;28;20491;-75
2022/05/27 02:05:01;;;;;;;9.15;5.25;;;25.00;96.70;;;;;;5046275;28;20037;-76
2022/05/27 02:07:35;;;;;;;9.88;5.55;;;24.90;96.70;;;;;;5052330;28;20047;-77
2022/05/27 02:10:08;;;;;;;8.25;5.20;;;24.90;96.70;;;;;;5054075;28;20063;-76
2022/05/27 02:12:40;;;;;;;8.60;5.55;;;25.00;96.70;;;;;;5034946;28;20802;-77
2022/05/27 02:15:12;;;;;;;7.68;5.22;;;25.00;96.70;;;;;;5051985;28;20048;-77
2022/05/27 02:17:45;;;;;;;8.75;5.53;;;25.00;96.70;;;;;;5037831;28;20052;-77
2022/05/27 02:20:17;;;;;;;6.47;4.65;;;24.90;96.70;;;;;;5048548;28;20152;-76
2022/05/27 02:22:49;;;;;;;10.65;6.03;;;25.00;96.70;;;;;;5058830;28;20518;-77
2022/05/27 02:25:21;;;;;;;9.05;5.15;;;24.90;96.70;;;;;;5054423;28;20048;-77
2022/05/27 02:27:55;;;;;;;8.43;5.28;;;24.80;96.70;;;;;;5049302;28;20067;-76
2022/05/27 02:30:30;;;;;;;5.97;5.13;;;24.70;96.70;;;;;;5055533;28;20040;-78
2022/05/27 02:35:53;;;;;;;8.07;5.70;;;24.70;96.70;;;;;;5048014;28;20048;-78
2022/05/27 02:38:21;;;;;;;10.43;5.57;;;24.70;96.70;;;;;;5056787;28;20045;-78
2022/05/27 02:40:59;;;;;;;11.73;6.22;;;24.70;96.70;;;;;;5053975;28;20124;-79
2022/05/27 02:43:44;;;;;;;8.98;5.80;;;24.50;96.70;;;;;;5055676;28;20414;-77
2022/05/27 02:46:29;;;;;;;8.27;5.72;;;24.60;96.70;;;;;;5038296;28;20040;-78
2022/05/27 02:49:08;;;;;;;10.45;5.65;;;24.60;96.70;;;;;;5037652;28;20048;-78
2022/05/27 02:51:44;;;;;;;9.27;5.97;;;24.70;96.70;;;;;;5047290;28;20421;-78
2022/05/27 02:54:16;;;;;;;;;;;24.60;96.70;;;;;;5035902;28;20406;-78
2022/05/27 02:56:49;;;;;;;9.15;5.45;;;24.60;96.70;;;;;;5056682;28;19931;-77
2022/05/27 02:59:19;;;;;;;10.25;5.45;;;24.50;96.70;;;;;;5059480;28;20075;-78
2022/05/27 03:01:47;;;;;;;8.05;5.75;;;24.50;96.70;;;;;;5058161;28;20119;-78
2022/05/27 03:04:19;;;;;;;8.77;5.15;;;24.40;96.70;;;;;;5058686;28;20091;-78
2022/05/27 03:06:58;;;;;;;8.95;5.88;;;24.40;96.70;;;;;;5063954;28;20049;-78
2022/05/27 03:09:33;;;;;;;8.30;5.43;;;24.50;96.70;;;;;;5056267;28;20467;-78
2022/05/27 03:12:10;;;;;;;8.67;5.73;;;24.40;96.70;;;;;;5057271;28;20086;-81
2022/05/27 03:14:55;;;;;;;9.05;5.10;;;24.20;96.70;;;;;;5035811;28;20388;-79
2022/05/27 03:17:36;;;;;;;8.60;5.90;;;24.10;96.70;;;;;;5060582;28;20040;-79
2022/05/27 03:20:16;;;;;;;7.88;5.13;;;24.00;96.70;;;;;;5045196;28;20044;-79
2022/05/27 03:22:55;;;;;;;7.97;5.57;;;24.10;96.70;;;;;;5057573;28;20714;-79
2022/05/27 03:25:34;;;;;;;8.63;5.68;;;24.10;96.70;;;;;;5059726;28;20064;-78
2022/05/27 03:28:10;;;;;;;7.35;5.63;;;24.00;96.70;;;;;;5054267;28;20045;-78
2022/05/27 03:30:48;;;;;;;9.52;6.20;;;24.00;96.70;;;;;;5043118;28;20063;-78
2022/05/27 03:33:20;;;;;;;8.82;5.25;;;23.90;96.70;;;;;;5059238;28;20079;-79
2022/05/27 03:35:55;;;;;;;8.45;5.43;;;24.00;96.70;;;;;;5060975;28;20072;-79
2022/05/27 03:38:29;;;;;;;11.50;5.53;;;24.10;96.70;;;;;;5059871;28;20457;-78
2022/05/27 03:41:04;;;;;;;7.55;5.80;;;24.10;96.70;;;;;;5055803;28;20143;-79
2022/05/27 03:43:34;;;;;;;10.27;6.70;;;24.00;96.70;;;;;;5054074;28;20066;-79
2022/05/27 03:46:03;;;;;;;8.60;5.63;;;24.00;96.70;;;;;;5056995;28;20048;-79
2022/05/27 03:48:33;;;;;;;12.82;5.95;;;24.00;96.70;;;;;;5052134;28;20057;-78
2022/05/27 03:51:10;;;;;;;9.88;6.68;;;24.00;96.70;;;;;;5052476;28;20037;-79
2022/05/27 03:56:24;;;;;;;;;;;23.90;96.70;;;;;;5055609;28;20427;-79
2022/05/27 03:58:52;;;;;;;8.65;5.57;;;23.80;96.70;;;;;;5056371;28;20316;-79
2022/05/27 04:01:24;;;;;;;9.15;5.28;;;23.80;96.70;;;;;;5039647;28;20049;-79
2022/05/27 04:03:53;;;;;;;8.45;5.55;;;23.80;96.70;;;;;;5056975;28;20037;-79
2022/05/27 04:06:22;;;;;;;10.75;5.40;;;23.80;96.70;;;;;;5043679;28;20045;-79
2022/05/27 04:08:50;;;;;;;10.45;5.35;;;23.80;96.70;;;;;;5062148;28;20827;-79
2022/05/27 04:11:19;;;;;;;7.00;5.45;;;23.80;96.70;;;;;;5054805;28;20044;-78
2022/05/27 04:13:47;;;;;;;10.77;5.50;;;23.90;96.70;;;;;;5032158;28;20056;-79
2022/05/27 04:16:15;;;;;;;10.80;6.00;;;23.90;96.70;;;;;;5058000;28;20064;-78
2022/05/27 04:18:43;;;;;;;12.90;5.85;;;23.90;96.70;;;;;;5038429;28;20076;-79
2022/05/27 04:21:12;;;;;;;9.13;5.43;;;23.90;96.70;;;;;;5054526;28;20589;-78
2022/05/27 04:23:42;;;;;;;12.57;6.18;;;23.90;96.70;;;;;;5061292;28;20385;-79
2022/05/27 04:26:19;;;;;;;11.07;5.60;;;23.80;96.70;;;;;;5042391;28;20045;-78
2022/05/27 04:28:51;;;;;;;11.48;5.10;;;23.90;96.70;;;;;;5034820;28;20053;-78
2022/05/27 04:31:19;;;;;;;10.30;6.40;;;23.80;96.70;;;;;;5054098;28;20502;-78
2022/05/27 04:33:48;;;;;;;11.15;6.13;;;23.80;96.70;;;;;;5056611;28;20048;-79
2022/05/27 04:36:19;;;;;;;13.93;6.72;;;23.80;96.70;;;;;;5054395;28;20063;-79
2022/05/27 04:38:49;;;;;;;11.15;5.88;;;23.80;96.70;;;;;;5052242;28;20549;-77
2022/05/27 04:41:17;;;;;;;11.13;6.00;;;23.90;96.70;;;;;;5057821;28;20506;-78
2022/05/27 04:43:45;;;;;;;12.07;6.10;;;24.00;96.70;;;;;;5050329;28;20071;-78
2022/05/27 04:46:13;;;;;;;11.88;6.93;;;24.10;96.70;;;;;;5055024;28;20047;-78
2022/05/27 04:48:40;;;;;;;11.60;6.68;;;24.10;96.70;;;;;;5055789;28;20073;-77
2022/05/27 04:51:08;;;;;;;15.32;6.45;;;24.00;96.70;;;;;;5037961;28;20920;-77
2022/05/27 04:53:36;;;;;;;9.70;6.40;;;24.00;96.70;;;;;;5053796;28;20041;-78
2022/05/27 04:56:07;;;;;;;8.32;5.70;;;24.20;96.70;;;;;;5055093;28;20072;-77
2022/05/27 04:58:35;;;;;;;12.30;6.60;;;24.20;96.70;;;;;;5055717;28;20121;-78
2022/05/27 05:01:02;;;;;;;6.20;5.60;;;24.20;96.70;;;;;;5058194;28;20510;-78
2022/05/27 05:03:30;;;;;;;11.38;6.85;;;24.20;96.70;;;;;;5058271;28;20059;-78
2022/05/27 05:05:58;;;;;;;8.52;6.20;;;24.10;96.70;;;;;;5053811;28;20045;-78
2022/05/27 05:08:33;;;;;;;8.55;6.22;;;24.10;96.70;;;;;;5037792;28;20045;-77
2022/05/27 05:11:04;;;;;;;9.20;6.80;;;24.20;96.70;;;;;;5056320;28;20414;-78
2022/05/27 05:13:34;;;;;;;8.52;7.13;;;24.30;96.70;;;;;;5057048;28;20159;-78
2022/05/27 05:16:04;;;;;;;9.23;6.60;;;24.40;96.70;;;;;;5051218;28;20055;-78
2022/05/27 05:18:32;;;;;;;12.10;6.72;;;24.50;96.70;;;;;;5059011;28;20083;-77
2022/05/27 05:21:00;;;;;;;10.07;6.78;;;24.50;96.70;;;;;;5055033;28;20045;-78
2022/05/27 05:23:28;;;;;;;10.13;6.13;;;24.60;96.70;;;;;;5051593;28;20075;-77
2022/05/27 05:25:55;;;;;;;10.30;6.20;;;24.60;96.70;;;;;;5053138;28;20498;-78
2022/05/27 05:28:23;;;;;;;12.68;6.85;;;24.70;96.70;;;;;;5057059;28;20036;-77
2022/05/27 05:30:52;;;;;;;10.50;7.20;;;24.70;96.70;;;;;;5053618;28;20044;-78
2022/05/27 05:33:20;;;;;;;13.05;6.65;;;24.70;96.70;;;;;;5053050;28;20529;-77
2022/05/27 05:35:48;;;;;;;10.93;6.50;;;24.70;96.70;;;;;;5054512;28;20052;-77
2022/05/27 05:38:16;;;;;;;11.93;6.93;;;24.80;96.70;;;;;;5049911;28;20048;-78
2022/05/27 05:40:44;;;;;;;15.82;7.53;;;24.90;96.70;;;;;;5055087;28;20045;-77
2022/05/27 05:43:13;;;;;;;12.40;6.82;;;25.00;96.70;;;;;;5048405;28;20048;-77
2022/05/27 05:45:41;;;;;;;11.45;6.65;;;25.00;96.70;;;;;;5057813;28;20044;-78
2022/05/27 05:48:10;;;;;;;13.48;6.70;;;25.10;96.70;;;;;;5053029;28;20076;-77
2022/05/27 05:50:38;;;;;;;12.73;6.78;;;25.00;96.70;;;;;;5051386;28;20661;-77
2022/05/27 05:53:12;;;;;;;11.63;6.45;;;25.10;96.70;;;;;;5054081;28;20044;-77
2022/05/27 05:55:40;;;;;;;13.30;6.95;;;25.10;96.70;;;;;;5056019;28;20116;-77
2022/05/27 05:58:08;;;;;;;12.95;6.68;;;25.20;96.70;;;;;;5051940;28;20053;-78
2022/05/27 06:00:36;;;;;;;10.20;6.63;;;25.20;96.70;;;;;;5056401;28;20124;-78
2022/05/27 06:03:04;;;;;;;11.98;6.85;;;25.20;96.70;;;;;;5038456;28;20044;-77
2022/05/27 06:05:33;;;;;;;14.80;7.63;;;25.30;96.70;;;;;;5056339;28;20048;-77
2022/05/27 06:08:01;;;;;;;12.00;7.43;;;25.20;96.70;;;;;;5044407;28;20055;-77
2022/05/27 06:10:29;;;;;;;8.48;6.07;;;25.20;96.70;;;;;;5049558;28;20037;-77
2022/05/27 06:12:57;;;;;;;12.75;6.95;;;25.20;96.70;;;;;;5059971;28;20041;-77
2022/05/27 06:15:25;;;;;;;11.65;6.40;;;25.30;96.70;;;;;;5053224;28;20582;-77
2022/05/27 06:17:53;;;;;;;9.43;6.25;;;25.30;96.70;;;;;;5035772;28;20044;-78
2022/05/27 06:20:21;;;;;;;13.93;6.78;;;25.30;96.70;;;;;;5036083;28;20045;-78
2022/05/27 06:22:50;;;;;;;13.25;6.63;;;25.40;96.70;;;;;;5053513;28;20052;-77
2022/05/27 06:25:23;;;;;;;13.75;7.00;;;25.50;96.70;;;;;;5050292;28;20419;-78
2022/05/27 06:34:23;;;;;;;16.67;7.95;;;25.50;96.70;;;;;;5055424;28;20036;-77
2022/05/27 06:36:12;;;;;;;13.30;7.25;;;25.60;96.70;;;;;;5055079;28;20035;-78
2022/05/27 06:38:42;;;;;;;13.65;7.20;;;25.60;96.70;;;;;;5055541;28;20532;-77
2022/05/27 06:41:10;;;;;;;12.32;7.65;;;25.70;96.70;;;;;;5059637;28;20033;-81
2022/05/27 06:43:38;;;;;;;11.88;7.25;;;25.70;96.70;;;;;;5059971;28;20044;-82
2022/05/27 06:46:06;;;;;;;13.95;7.47;;;25.70;96.70;;;;;;5058921;28;20040;-82
2022/05/27 06:48:34;;;;;;;15.02;7.90;;;25.70;96.70;;;;;;5058492;28;20193;-80
2022/05/27 06:51:06;;;;;;;9.82;7.35;;;25.70;96.70;;;;;;5064236;28;20048;-82
2022/05/27 06:53:34;;;;;;;12.95;7.22;;;25.70;96.70;;;;;;5066168;28;20048;-82
2022/05/27 06:56:04;;;;;;;14.20;7.95;;;25.80;96.70;;;;;;5056810;28;20572;-78
2022/05/27 06:58:32;;;;;;;14.25;7.47;;;25.90;96.70;;;;;;5061917;28;20490;-78
2022/05/27 07:01:00;;;;;;;13.15;7.25;;;26.00;96.70;;;;;;5055763;28;20068;-77
2022/05/27 07:03:28;;;;;;;10.80;6.70;;;26.00;96.70;;;;;;5061044;28;20099;-78
2022/05/27 07:06:00;;;;;;;12.48;6.65;;;26.10;96.70;;;;;;5060647;28;20056;-79
2022/05/27 07:08:28;;;;;;;12.82;7.80;;;26.20;96.70;;;;;;5039279;28;20052;-79
2022/05/27 07:10:56;;;;;;;12.25;7.15;;;26.20;96.70;;;;;;5056327;28;20045;-76
2022/05/27 07:13:25;;;;;;;13.20;6.68;;;26.20;96.70;;;;;;5052940;28;20037;-78
2022/05/27 07:15:53;;;;;;;12.90;6.60;;;26.20;96.70;;;;;;5060239;28;20040;-77
2022/05/27 07:18:21;;;;;;;11.80;6.93;;;26.30;96.70;;;;;;5055402;28;20037;-78
2022/05/27 07:20:49;;;;;;;10.15;6.60;;;26.30;96.70;;;;;;5058693;28;20053;-78
2022/05/27 07:23:17;;;;;;;11.73;6.40;;;26.30;96.70;;;;;;5048454;28;20037;-78
2022/05/27 07:25:45;;;;;;;11.00;6.47;;;26.30;96.70;;;;;;5053258;28;20068;-78
2022/05/27 07:28:13;;;;;;;12.50;6.35;;;26.40;96.70;;;;;;5054554;28;20036;-78
2022/05/27 07:30:43;;;;;;;13.73;6.57;;;26.30;96.70;;;;;;5055833;28;20502;-78
2022/05/27 07:33:11;;;;;;;10.35;6.25;;;26.40;96.70;;;;;;5057631;28;20052;-78
2022/05/27 07:35:39;;;;;;;11.27;6.75;;;26.50;96.70;;;;;;5056275;28;20568;-78
2022/05/27 07:38:07;;;;;;;11.05;6.30;;;26.50;96.70;;;;;;5050784;28;20028;-78
2022/05/27 07:40:35;;;;;;;11.50;6.18;;;26.50;96.70;;;;;;5060311;28;20483;-78
2022/05/27 07:43:03;;;;;;;14.25;6.28;;;26.60;96.70;;;;;;5050961;28;20059;-78
2022/05/27 07:45:38;;;;;;;10.43;5.85;;;26.60;96.70;;;;;;5055816;28;20584;-78
2022/05/27 07:48:09;;;;;;;11.45;6.28;;;26.70;96.70;;;;;;5052979;28;20055;-78
2022/05/27 07:50:38;;;;;;;12.70;6.30;;;26.80;96.70;;;;;;5056193;28;20053;-77
2022/05/27 07:53:06;;;;;;;8.50;5.72;;;26.90;96.70;;;;;;5054461;28;20095;-78
2022/05/27 07:55:35;;;;;;;8.30;5.93;;;26.90;96.70;;;;;;5049365;28;20048;-77
2022/05/27 07:58:03;;;;;;;15.02;6.22;;;26.90;96.70;;;;;;5056811;28;20763;-77
2022/05/27 08:00:34;;;;;;;12.02;6.70;;;27.00;96.70;;;;;;5053671;28;20114;-78
2022/05/27 08:03:07;;;;;;;13.48;6.57;;;27.10;96.70;;;;;;5052733;28;20051;-78
2022/05/27 08:05:35;;;;;;;11.63;6.60;;;27.00;96.70;;;;;;5058498;28;20554;-77
2022/05/27 08:08:04;;;;;;;11.65;7.13;;;27.10;96.70;;;;;;5055280;28;20055;-78
2022/05/27 08:10:34;;;;;;;11.05;6.20;;;27.20;96.70;;;;;;5049669;28;20102;-77
2022/05/27 08:13:03;;;;;;;12.57;7.18;;;27.30;96.70;;;;;;5057156;28;20051;-77
2022/05/27 08:15:31;;;;;;;9.38;5.95;;;27.30;96.70;;;;;;5052153;28;20048;-77
2022/05/27 08:17:59;;;;;;;10.45;6.63;;;27.40;96.70;;;;;;5062633;28;20208;-76
2022/05/27 08:20:31;;;;;;;12.88;6.82;;;27.40;96.70;;;;;;5055188;28;20056;-76
2022/05/27 08:23:00;;;;;;;9.93;6.75;;;27.50;96.70;;;;;;5042713;28;20479;-77
2022/05/27 08:25:29;;;;;;;12.52;5.97;;;27.70;96.70;;;;;;5049805;28;20426;-78
2022/05/27 08:27:57;;;;;;;15.57;6.53;;;27.90;96.70;;;;;;5050366;28;20135;-78
2022/05/27 08:30:28;;;;;;;10.52;5.88;;;27.90;96.70;;;;;;5054207;28;20048;-77
2022/05/27 08:32:56;;;;;;;12.70;6.60;;;28.00;96.70;;;;;;5054541;28;20110;-77
2022/05/27 08:38:19;;;;;;;10.52;6.80;;;28.30;96.70;;;;;;5052396;28;20088;-78
2022/05/27 08:41:18;;;;;;;10.57;6.05;;;28.30;96.70;;;;;;5050216;28;20048;-78
2022/05/27 08:44:10;;;;;;;13.25;5.72;;;28.30;96.70;;;;;;5052338;28;20498;-78
2022/05/27 08:46:46;;;;;;;12.27;6.35;;;28.40;96.70;;;;;;5054306;28;20037;-79
2022/05/27 08:49:19;;;;;;;10.75;6.22;;;28.50;96.70;;;;;;5054451;28;20126;-79
2022/05/27 08:51:53;;;;;;;11.85;5.55;;;28.70;96.70;;;;;;5054493;28;20068;-80
2022/05/27 08:54:27;;;;;;;9.82;5.85;;;28.80;96.70;;;;;;5052164;28;20037;-79
2022/05/27 08:59:49;;;;;;;12.13;6.30;;;29.00;96.70;;;;;;5053430;28;20052;-78
2022/05/27 09:02:28;;;;;;;9.95;6.53;;;29.10;96.70;;;;;;5053528;28;20055;-78
2022/05/27 09:05:06;;;;;;;11.90;5.82;;;29.10;96.70;;;;;;5053696;28;20048;-78
2022/05/27 09:07:46;;;;;;;11.65;5.65;;;29.30;96.70;;;;;;5052212;28;20040;-80
2022/05/27 09:10:17;;;;;;;11.40;5.93;;;29.40;96.70;;;;;;5054350;28;20063;-78
2022/05/27 09:12:59;;;;;;;11.43;5.53;;;29.60;96.70;;;;;;5052158;28;20063;-80
2022/05/27 09:15:36;;;;;;;12.25;6.15;;;29.70;96.70;;;;;;5053497;28;20554;-79
2022/05/27 09:18:20;;;;;;;14.13;6.20;;;29.70;96.70;;;;;;5040765;28;20127;-80
2022/05/27 09:21:16;;;;;;;11.00;6.20;;;29.80;96.70;;;;;;5055508;28;20102;-77
2022/05/27 09:24:16;;;;;;;12.75;5.65;;;29.80;96.70;;;;;;5059158;28;20127;-76
2022/05/27 09:26:54;;;;;;;15.68;5.95;;;29.70;96.70;;;;;;5047263;28;20507;-76
2022/05/27 09:29:37;;;;;;;13.80;6.22;;;29.90;96.70;;;;;;5035133;28;20049;-77
2022/05/27 09:32:09;;;;;;;13.85;5.72;;;30.20;96.70;;;;;;5056298;28;20052;-76
2022/05/27 09:34:40;;;;;;;8.27;4.88;;;30.20;96.70;;;;;;5055016;28;20049;-76
2022/05/27 09:37:12;;;;;;;11.35;5.80;;;30.30;96.70;;;;;;5053976;28;20075;-77
2022/05/27 09:39:40;;;;;;;9.82;5.28;;;30.40;96.70;;;;;;5073230;28;20057;-77
2022/05/27 09:42:16;;;;;;;10.32;5.47;;;30.60;96.70;;;;;;5056077;28;20028;-76
2022/05/27 09:44:49;;;;;;;12.32;5.85;;;30.50;96.70;;;;;;5052328;28;20063;-76
2022/05/27 09:47:17;;;;;;;13.32;5.25;;;30.60;96.70;;;;;;5054122;28;20045;-76
2022/05/27 09:49:50;;;;;;;11.18;5.28;;;30.60;96.70;;;;;;5051517;28;20053;-76
2022/05/27 09:52:19;;;;;;;13.93;5.13;;;30.80;96.70;;;;;;5058173;28;20048;-76
2022/05/27 09:54:50;;;;;;;12.27;5.30;;;30.90;96.70;;;;;;5058892;28;20117;-76
2022/05/27 09:57:25;;;;;;;14.82;6.22;;;30.80;96.70;;;;;;5038315;28;20060;-76
2022/05/27 09:59:56;;;;;;;10.38;5.43;;;30.60;96.70;;;;;;5051118;28;20049;-76
2022/05/27 10:02:32;;;;;;;11.27;5.72;;;30.50;96.70;;;;;;5049530;28;20087;-76
2022/05/27 10:05:02;;;;;;;11.73;5.75;;;30.60;96.70;;;;;;5055879;28;20131;-76
2022/05/27 10:07:35;;;;;;;10.85;6.50;;;30.80;96.70;;;;;;5055429;28;20048;-76
2022/05/27 10:10:20;;;;;;;10.30;5.22;;;31.00;96.70;;;;;;5057316;28;20052;-76
2022/05/27 10:12:49;;;;;;;11.23;5.85;;;31.20;96.70;;;;;;5060429;28;20098;-76
2022/05/27 10:15:25;;;;;;;11.82;4.88;;;31.20;96.70;;;;;;5052701;28;20048;-76
2022/05/27 10:17:53;;;;;;;10.77;4.85;;;31.10;96.70;;;;;;5056285;28;20049;-76
2022/05/27 10:20:34;;;;;;;17.40;5.68;;;31.10;96.70;;;;;;5058327;28;20060;-75
2022/05/27 10:23:04;;;;;;;8.57;4.95;;;31.30;96.70;;;;;;5058247;28;20052;-76
2022/05/27 10:25:35;;;;;;;12.43;4.50;;;31.40;96.70;;;;;;5056015;28;20140;-76
2022/05/27 10:28:06;;;;;;;14.35;5.55;;;31.60;96.70;;;;;;5041486;28;20048;-76
2022/05/27 10:30:36;;;;;;;12.00;5.50;;;32.00;96.70;;;;;;5052017;28;20052;-76
2022/05/27 10:33:19;;;;;;;12.80;4.40;;;32.10;96.70;;;;;;5055384;28;20709;-76
2022/05/27 10:35:48;;;;;;;10.15;4.93;;;32.20;96.70;;;;;;5056244;28;20040;-76
2022/05/27 10:38:33;;;;;;;8.77;4.60;;;32.40;96.70;;;;;;5040124;28;20052;-76
2022/05/27 10:41:07;;;;;;;13.48;5.38;;;32.30;96.70;;;;;;5046955;28;20224;-76
2022/05/27 10:43:59;;;;;;;11.10;4.72;;;32.60;96.70;;;;;;5060762;28;20040;-76
2022/05/27 10:46:32;;;;;;;11.95;4.60;;;32.80;96.70;;;;;;5057326;28;20045;-76
2022/05/27 10:49:38;;;;;;;10.73;4.97;;;32.90;96.70;;;;;;5055864;28;20080;-76
2022/05/27 10:52:20;;;;;;;12.75;5.10;;;33.10;96.70;;;;;;5070399;28;20086;-76
2022/05/27 10:55:04;;;;;;;12.85;4.38;;;33.30;96.70;;;;;;5056085;28;20044;-76
2022/05/27 11:03:53;;;;;;;10.07;4.28;;;33.50;94.00;;;;;;5052249;28;20049;-76
2022/05/27 11:06:47;;;;;;;11.38;4.25;;;33.30;93.80;;;;;;5047554;28;20063;-76
2022/05/27 11:09:35;;;;;;;12.50;4.20;;;33.30;93.20;;;;;;5054196;28;20053;-76
2022/05/27 11:12:09;;;;;;;13.75;4.03;;;33.30;92.50;;;;;;5056947;28;20508;-76
2022/05/27 11:17:52;;;;;;;13.05;4.03;;;33.30;92.60;;;;;;5051825;28;20508;-76
2022/05/27 11:20:44;;;;;;;11.93;4.00;;;33.40;92.50;;;;;;5055992;28;20512;-76
2022/05/27 11:23:49;;;;;;;10.90;3.40;;;33.50;90.80;;;;;;5047712;28;20064;-76
2022/05/27 11:26:26;;;;;;;19.50;4.28;;;33.80;90.40;;;;;;5059852;28;20705;-76
2022/05/27 11:29:10;;;;;;;13.85;4.32;;;33.80;87.80;;;;;;5053265;28;20044;-76
2022/05/27 11:31:52;;;;;;;9.65;3.30;;;34.20;87.40;;;;;;5056954;28;20075;-76
2022/05/27 11:34:27;;;;;;;13.45;3.55;;;34.50;86.30;;;;;;5055774;28;20049;-76
2022/05/27 11:37:20;;;;;;;13.07;4.28;;;34.70;84.90;;;;;;5048940;28;20059;-76
2022/05/27 11:40:05;;;;;;;12.63;3.78;;;34.90;84.00;;;;;;5053514;28;20061;-76
2022/05/27 11:42:56;;;;;;;16.67;3.95;;;35.10;83.10;;;;;;5053013;28;20118;-75
2022/05/27 11:45:26;;;;;;;10.18;3.45;;;35.20;82.70;;;;;;5042934;28;20143;-76
2022/05/27 11:48:06;;;;;;;11.68;3.53;;;35.40;82.50;;;;;;5052884;28;20708;-76
2022/05/27 11:50:52;;;;;;;16.60;3.40;;;35.70;81.50;;;;;;5062698;28;20089;-76
2022/05/27 11:53:38;;;;;;;12.02;3.47;;;35.70;81.70;;;;;;5050180;28;20100;-76
2022/05/27 11:56:14;;;;;;;13.10;3.85;;;35.70;82.20;;;;;;5057782;28;20581;-76
2022/05/27 11:58:50;;;;;;;12.63;3.10;;;35.70;81.80;;;;;;5058022;28;20402;-76
2022/05/27 12:01:26;;;;;;;14.05;3.22;;;35.50;82.00;;;;;;5058722;28;20532;-75
2022/05/27 12:04:26;;;;;;;14.77;3.75;;;35.40;82.60;;;;;;5052936;28;20124;-76
2022/05/27 12:07:01;;;;;;;13.23;3.67;;;35.50;81.60;;;;;;5053990;28;20095;-76
2022/05/27 12:09:34;;;;;;;11.55;3.55;;;35.70;81.80;;;;;;5056260;28;20049;-76
2022/05/27 12:12:07;;;;;;;15.88;3.65;;;35.40;80.40;;;;;;5055280;28;20044;-75
2022/05/27 12:14:38;;;;;;;14.05;3.90;;;35.10;79.70;;;;;;5050437;28;20033;-76
2022/05/27 12:17:20;;;;;;;12.38;3.33;;;35.30;81.60;;;;;;5059881;28;20608;-76
2022/05/27 12:19:56;;;;;;;13.38;3.15;;;35.50;80.40;;;;;;5057932;28;20056;-76
2022/05/27 12:22:30;;;;;;;14.30;3.38;;;35.50;80.90;;;;;;5056376;28;20040;-76
2022/05/27 12:25:04;;;;;;;15.18;3.50;;;35.60;81.00;;;;;;5058626;28;20052;-76
2022/05/27 12:27:33;;;;;;;10.70;3.33;;;35.70;81.60;;;;;;5061969;28;20067;-77
2022/05/27 12:30:05;;;;;;;15.80;3.22;;;36.00;80.20;;;;;;5049540;28;20131;-76
2022/05/27 12:32:34;;;;;;;12.05;3.40;;;36.20;80.50;;;;;;5056439;28;20139;-76
2022/05/27 12:35:28;;;;;;;12.70;3.88;;;36.20;79.70;;;;;;5056613;28;20068;-76
2022/05/27 12:38:05;;;;;;;10.98;3.72;;;36.40;78.80;;;;;;5050999;28;20099;-77
2022/05/27 12:40:39;;;;;;;10.98;3.08;;;36.50;78.30;;;;;;5054623;28;20048;-76
2022/05/27 12:43:20;;;;;;;12.48;3.20;;;36.70;77.10;;;;;;5055740;28;20036;-76
2022/05/27 12:46:32;;;;;;;13.77;3.60;;;36.90;78.20;;;;;;5051012;28;20066;-76
2022/05/27 12:49:31;;;;;;;16.13;3.72;;;36.90;76.20;;;;;;5056859;28;20057;-76
2022/05/27 12:52:00;;;;;;;13.02;3.42;;;36.90;76.50;;;;;;5004320;28;20056;-76
2022/05/27 12:55:02;;;;;;;10.40;3.10;;;36.90;77.20;;;;;;5048516;28;20037;-76
2022/05/27 13:03:48;;;;;;;16.73;3.45;;;37.10;76.70;;;;;;5055387;28;20554;-76
2022/05/27 13:06:35;;;;;;;12.05;3.70;;;37.30;75.10;;;;;;5055498;28;20124;-76
2022/05/27 13:09:07;;;;;;;11.88;3.20;;;37.50;72.70;;;;;;5021796;28;20057;-76
2022/05/27 13:11:46;;;;;;;16.52;3.42;;;37.60;71.40;;;;;;5049646;28;20052;-76
2022/05/27 13:14:20;;;;;;;14.68;3.22;;;37.70;74.20;;;;;;5050961;28;20045;-76
2022/05/27 13:17:03;;;;;;;13.52;3.65;;;37.90;73.60;;;;;;5057632;28;20048;-75
2022/05/27 13:19:36;;;;;;;14.52;3.38;;;37.80;73.60;;;;;;5057942;28;20067;-76
2022/05/27 13:22:12;;;;;;;14.38;3.65;;;37.60;74.70;;;;;;5053625;28;20055;-76
2022/05/27 13:24:42;;;;;;;14.10;3.67;;;37.50;73.30;;;;;;5052925;28;20060;-76
2022/05/27 13:27:23;;;;;;;18.58;3.55;;;37.70;72.60;;;;;;5054502;28;20535;-76
2022/05/27 13:29:59;;;;;;;12.43;3.35;;;37.80;70.60;;;;;;5053495;28;20060;-77
2022/05/27 13:32:30;;;;;;;14.00;2.90;;;37.90;72.00;;;;;;5040781;28;20049;-76
2022/05/27 13:35:01;;;;;;;12.18;3.83;;;38.20;72.10;;;;;;5031883;28;20059;-76
2022/05/27 13:37:46;;;;;;;10.38;3.45;;;38.30;70.30;;;;;;5053173;28;20405;-76
2022/05/27 13:40:19;;;;;;;15.65;3.70;;;38.40;71.20;;;;;;5037520;28;20036;-76
2022/05/27 13:42:51;;;;;;;11.70;3.38;;;38.50;69.30;;;;;;5051487;28;20068;-76
2022/05/27 13:45:27;;;;;;;15.75;3.33;;;38.70;68.70;;;;;;5057624;28;20127;-76
2022/05/27 13:48:00;;;;;;;12.85;3.30;;;38.60;68.60;;;;;;5048848;28;20387;-76
2022/05/27 13:50:31;;;;;;;15.32;3.47;;;38.60;68.50;;;;;;5032833;28;20803;-76